Time;durP1;ratioP1;P1;durP2;ratioP2;P2;SDS_P1;SDS_P2;PMS_P1;PMS_P2;Temp;Humidity;BMP_temperature;BMP_pressure;BME280_temperature;BME280_humidity;BME280_pressure;Samples;Min_cycle;Max_cycle;Signal;HPM_P1;HPM_P2
2023/03/23 00:01:10;;;;;;;9.10;5.60;;;;;;;19.43;52.46;100992.88;5073159;28;20055;-50
2023/03/23 00:03:37;;;;;;;7.72;5.95;;;;;;;19.42;52.47;100991.16;5076000;28;20040;-48
2023/03/23 00:06:06;;;;;;;6.13;5.20;;;;;;;19.43;52.43;101000.06;5076781;28;20055;-49
2023/03/23 00:08:44;;;;;;;9.38;5.65;;;;;;;19.42;52.46;100991.16;5076796;28;20044;-49
2023/03/23 00:11:20;;;;;;;7.47;5.25;;;;;;;19.42;52.36;100993.84;5076767;28;20463;-51
2023/03/23 00:13:52;;;;;;;7.95;5.45;;;;;;;19.42;52.36;100993.00;5076518;28;20033;-50
2023/03/23 00:16:30;;;;;;;6.97;5.43;;;;;;;19.42;52.27;100991.16;5076504;28;20478;-49
2023/03/23 00:19:01;;;;;;;6.88;5.90;;;;;;;19.42;52.15;100995.69;5076249;28;20041;-49
2023/03/23 00:21:34;;;;;;;8.93;6.05;;;;;;;19.41;52.35;100988.63;5076604;28;20048;-48
2023/03/23 00:24:02;;;;;;;8.15;5.32;;;;;;;19.41;52.31;100988.63;5076543;28;20471;-54
2023/03/23 00:26:29;;;;;;;6.70;5.22;;;;;;;19.41;52.25;100989.47;5075345;28;20064;-54
2023/03/23 00:28:56;;;;;;;7.60;5.78;;;;;;;19.41;52.13;100996.69;5076641;28;20064;-51
2023/03/23 00:31:22;;;;;;;9.27;4.93;;;;;;;19.41;52.23;100985.94;5075292;28;20056;-54
2023/03/23 00:33:48;;;;;;;6.63;5.28;;;;;;;19.39;52.07;100980.69;5076088;28;20045;-52
2023/03/23 00:36:14;;;;;;;7.32;5.38;;;;;;;19.41;52.20;100994.00;5075937;28;20052;-54
2023/03/23 00:38:46;;;;;;;6.43;5.32;;;;;;;19.40;52.18;100987.75;5058522;28;20056;-53
2023/03/23 00:41:15;;;;;;;6.40;5.13;;;;;;;19.39;52.13;100986.03;5076271;28;20044;-52
2023/03/23 00:43:41;;;;;;;7.97;5.95;;;;;;;19.40;52.14;100981.53;5076136;28;20486;-51
2023/03/23 00:46:09;;;;;;;6.80;5.18;;;;;;;19.40;52.01;100981.53;5076004;28;20517;-50
2023/03/23 00:48:44;;;;;;;6.53;5.20;;;;;;;19.38;51.95;100973.63;5076155;28;20072;-51
2023/03/23 00:51:11;;;;;;;6.18;5.28;;;;;;;19.39;52.01;100969.94;5076026;28;20040;-52
2023/03/23 00:53:41;;;;;;;8.75;6.00;;;;;;;19.39;51.83;100975.31;5074726;28;20049;-51
2023/03/23 00:56:08;;;;;;;6.45;5.00;;;;;;;19.38;51.94;100973.63;5075917;28;20056;-54
2023/03/23 00:58:35;;;;;;;6.32;5.38;;;;;;;19.39;51.91;100969.94;5074820;28;20055;-50
2023/03/23 01:01:02;;;;;;;6.00;4.97;;;;;;;19.39;51.92;100963.72;5074679;28;20056;-51
2023/03/23 01:03:29;;;;;;;7.38;5.68;;;;;;;19.38;51.82;100953.97;5074303;28;20398;-53
2023/03/23 01:06:04;;;;;;;6.15;5.20;;;;;;;19.37;51.72;100953.13;5074439;28;20059;-54
2023/03/23 01:08:31;;;;;;;7.28;5.32;;;;;;;19.37;51.76;100942.38;5074560;28;20063;-54
2023/03/23 01:11:04;;;;;;;6.90;5.20;;;;;;;19.38;51.82;100935.19;5074487;28;20067;-55
2023/03/23 01:13:31;;;;;;;;;;;;;;;19.37;51.74;100928.97;5074862;28;20059;-54
2023/03/23 01:15:57;;;;;;;6.20;5.30;;;;;;;19.37;51.68;100931.66;5074304;28;19921;-50
2023/03/23 01:18:24;;;;;;;8.52;5.60;;;;;;;19.37;51.74;100925.44;5075352;28;20051;-51
2023/03/23 01:20:50;;;;;;;9.05;5.15;;;;;;;19.37;51.84;100930.81;5075412;28;20044;-48
2023/03/23 01:23:16;;;;;;;7.03;5.13;;;;;;;19.36;51.59;100932.59;5075385;28;20055;-49
2023/03/23 01:25:44;;;;;;;6.13;4.75;;;;;;;19.36;51.78;100926.38;5075193;28;20075;-52
2023/03/23 01:28:11;;;;;;;7.65;5.38;;;;;;;19.35;51.81;100925.53;5074181;28;20059;-55
2023/03/23 01:30:37;;;;;;;11.43;5.47;;;;;;;19.36;51.67;100921.00;5075410;28;20060;-54
2023/03/23 01:33:04;;;;;;;7.10;4.93;;;;;;;19.36;51.58;100918.34;5074910;28;20052;-51
2023/03/23 01:35:30;;;;;;;6.78;5.00;;;;;;;19.36;51.58;100918.34;5057347;28;20057;-50
2023/03/23 01:37:56;;;;;;;6.10;5.07;;;;;;;19.34;51.64;100913.09;5074102;28;20415;-47
2023/03/23 01:40:23;;;;;;;7.10;5.25;;;;;;;19.35;51.69;100913.94;5074001;28;20387;-49
2023/03/23 01:42:49;;;;;;;6.93;5.35;;;;;;;19.35;51.76;100909.44;5073827;28;20048;-49
2023/03/23 01:45:19;;;;;;;7.53;5.13;;;;;;;19.34;51.55;100918.47;5073811;28;20052;-48
2023/03/23 01:48:11;;;;;;;7.43;4.60;;;;;;;19.34;51.60;100906.88;5074627;28;20052;-50
2023/03/23 01:51:08;;;;;;;6.88;5.15;;;;;;;19.35;51.66;100911.28;5074426;28;20494;-48
2023/03/23 01:53:42;;;;;;;6.90;4.90;;;;;;;19.35;51.53;100913.94;5074560;28;20501;-48
2023/03/23 01:56:11;;;;;;;7.25;4.38;;;;;;;19.34;51.58;100912.25;5073618;28;20060;-51
2023/03/23 01:58:38;;;;;;;7.30;4.97;;;;;;;19.34;51.52;100913.09;5074651;28;20044;-54
2023/03/23 02:01:11;;;;;;;6.97;4.70;;;;;;;19.33;51.57;100900.66;5073481;28;20067;-50
2023/03/23 02:03:39;;;;;;;;;;;;;;;19.34;51.47;100906.88;5074962;28;20032;-51
2023/03/23 02:06:05;;;;;;;6.60;5.25;;;;;;;19.33;51.64;100897.13;5073416;28;19920;-48
2023/03/23 02:08:38;;;;;;;7.88;5.35;;;;;;;19.33;51.59;100900.66;5073427;28;20057;-48
2023/03/23 02:11:13;;;;;;;7.07;5.05;;;;;;;19.32;51.56;100906.16;5073178;28;20064;-49
2023/03/23 02:13:40;;;;;;;8.48;4.65;;;;;;;19.32;51.51;100893.56;5073179;28;20396;-50
2023/03/23 02:16:11;;;;;;;10.45;4.95;;;;;;;19.33;51.64;100899.81;5074438;28;20060;-49
2023/03/23 02:18:57;;;;;;;6.40;5.05;;;;;;;19.32;51.47;100904.31;5073171;28;20498;-49
2023/03/23 02:22:09;;;;;;;6.50;4.90;;;;;;;19.32;51.38;100898.09;5074264;28;20458;-49
2023/03/23 02:24:47;;;;;;;5.95;4.53;;;;;;;19.32;51.54;100898.94;5071699;28;20053;-49
2023/03/23 02:27:21;;;;;;;6.75;4.82;;;;;;;19.31;51.42;100899.94;5072889;28;20052;-48
2023/03/23 02:30:11;;;;;;;5.60;4.28;;;;;;;19.32;51.57;100903.47;5072904;28;20052;-51
2023/03/23 02:33:10;;;;;;;8.30;5.00;;;;;;;19.32;51.25;100911.53;5073995;28;20053;-53
2023/03/23 02:35:43;;;;;;;7.72;4.75;;;;;;;19.31;51.35;100902.63;5064844;28;20059;-50
2023/03/23 02:38:16;;;;;;;6.45;5.10;;;;;;;19.31;51.36;100905.31;5073960;28;20056;-47
2023/03/23 02:40:47;;;;;;;6.13;4.50;;;;;;;19.32;51.52;100911.53;5073037;28;20525;-51
2023/03/23 02:43:25;;;;;;;7.13;4.82;;;;;;;19.30;51.51;100903.59;5072834;28;20053;-51
2023/03/23 02:45:53;;;;;;;7.43;4.60;;;;;;;19.32;51.51;100906.16;5072929;28;20067;-52
2023/03/23 02:48:24;;;;;;;6.07;4.53;;;;;;;19.32;51.82;100911.53;5074289;28;20075;-50
2023/03/23 02:50:52;;;;;;;6.15;4.90;;;;;;;19.32;51.79;100911.53;5072878;28;20063;-51
2023/03/23 02:53:22;;;;;;;6.32;4.50;;;;;;;19.32;51.81;100909.69;5072332;28;20367;-50
2023/03/23 02:55:55;;;;;;;7.60;4.90;;;;;;;19.31;51.62;100905.31;5072654;28;20064;-54
2023/03/23 02:58:24;;;;;;;8.65;5.38;;;;;;;19.32;51.64;100914.22;5072600;28;20292;-53
2023/03/23 03:00:51;;;;;;;7.75;5.35;;;;;;;19.32;51.48;100923.09;5072423;28;20070;-53
2023/03/23 03:03:23;;;;;;;6.50;4.80;;;;;;;19.31;51.57;100916.03;5072682;28;20052;-53
2023/03/23 03:06:14;;;;;;;7.82;4.43;;;;;;;19.32;51.70;100914.22;5072217;28;20064;-50
2023/03/23 03:09:00;;;;;;;5.68;4.00;;;;;;;19.31;51.78;100910.69;5072495;28;20059;-49
2023/03/23 03:11:26;;;;;;;7.72;5.22;;;;;;;19.31;51.72;100912.50;5072383;28;20052;-50
2023/03/23 03:14:00;;;;;;;8.20;4.97;;;;;;;19.32;51.90;100906.16;5072390;28;20052;-48
2023/03/23 03:16:34;;;;;;;5.82;5.05;;;;;;;19.31;51.67;100913.34;5072513;28;20063;-51
2023/03/23 03:19:13;;;;;;;6.30;4.30;;;;;;;19.32;51.68;100906.16;5073546;28;20051;-54
2023/03/23 03:21:43;;;;;;;5.97;3.85;;;;;;;19.31;51.52;100912.50;5072225;28;20060;-52
2023/03/23 03:24:15;;;;;;;7.72;4.70;;;;;;;19.30;51.49;100903.59;5072181;28;20406;-49
2023/03/23 03:26:47;;;;;;;7.30;4.72;;;;;;;19.31;51.47;100901.78;5072064;28;20083;-51
2023/03/23 03:29:45;;;;;;;6.85;4.22;;;;;;;19.31;51.51;100899.09;5072990;28;20483;-50
2023/03/23 03:32:18;;;;;;;6.00;4.28;;;;;;;19.30;51.48;100903.59;5072226;28;20071;-48
2023/03/23 03:34:44;;;;;;;;;;;;;;;19.30;51.52;100911.66;5072660;28;20052;-47
2023/03/23 03:37:12;;;;;;;6.63;4.00;;;;;;;19.31;51.28;100912.50;5072903;28;19927;-49
2023/03/23 03:39:39;;;;;;;7.93;4.60;;;;;;;19.31;51.38;100917.88;5077129;28;20047;-48
2023/03/23 03:42:06;;;;;;;5.85;4.35;;;;;;;19.30;51.41;100921.56;5075795;28;20489;-50
2023/03/23 03:44:33;;;;;;;6.90;4.43;;;;;;;19.29;51.12;100926.06;5076256;28;20049;-50
2023/03/23 03:46:59;;;;;;;6.50;4.72;;;;;;;19.28;51.42;100918.97;5077140;28;20051;-49
2023/03/23 03:49:26;;;;;;;6.50;4.93;;;;;;;19.29;51.24;100926.06;5076035;28;20498;-49
2023/03/23 03:51:54;;;;;;;6.00;4.15;;;;;;;19.29;51.19;100919.84;5076964;28;20059;-50
2023/03/23 03:54:41;;;;;;;7.03;4.25;;;;;;;19.29;51.25;100919.84;5076633;28;20044;-49
2023/03/23 03:57:07;;;;;;;5.60;4.30;;;;;;;19.29;51.18;100927.91;5076839;28;20070;-50
2023/03/23 03:59:54;;;;;;;5.35;4.20;;;;;;;19.29;51.06;100914.50;5076112;28;20503;-48
2023/03/23 04:02:38;;;;;;;7.85;4.60;;;;;;;19.28;51.14;100913.59;5083858;28;20052;-50
2023/03/23 04:05:05;;;;;;;7.40;3.92;;;;;;;19.27;51.07;100918.13;5076470;28;20059;-50
2023/03/23 04:07:33;;;;;;;5.10;3.97;;;;;;;19.28;50.99;100921.66;5075582;28;20056;-52
2023/03/23 04:09:59;;;;;;;6.18;4.20;;;;;;;19.28;51.03;100921.66;5076773;28;20386;-55
2023/03/23 04:12:25;;;;;;;5.80;4.90;;;;;;;19.28;50.98;100929.72;5076570;28;20055;-54
2023/03/23 04:14:58;;;;;;;5.35;3.92;;;;;;;19.27;51.25;100926.19;5083544;28;20196;-49
2023/03/23 04:17:32;;;;;;;6.30;4.28;;;;;;;19.27;50.93;100931.56;5075612;28;20061;-47
2023/03/23 04:20:06;;;;;;;5.07;3.75;;;;;;;19.27;50.97;100928.88;5076589;28;20048;-48
2023/03/23 04:22:33;;;;;;;5.70;4.05;;;;;;;19.26;50.81;100937.91;5076293;28;20064;-49
2023/03/23 04:25:05;;;;;;;5.07;3.70;;;;;;;19.26;50.94;100943.28;5075265;28;20049;-52
2023/03/23 04:27:32;;;;;;;5.13;4.03;;;;;;;19.27;50.98;100941.44;5058442;28;20048;-54
2023/03/23 04:30:02;;;;;;;4.70;3.72;;;;;;;19.27;50.81;100944.13;5075244;28;20045;-51
2023/03/23 04:32:45;;;;;;;;;;;;;;;19.26;50.78;100945.97;5075719;28;20063;-53
2023/03/23 04:35:17;;;;;;;4.45;3.47;;;;;;;19.27;50.80;100949.50;5075238;28;20282;-53
2023/03/23 04:37:49;;;;;;;5.55;4.18;;;;;;;19.25;50.81;100946.94;5075123;28;20052;-50
2023/03/23 04:40:19;;;;;;;5.70;4.20;;;;;;;19.25;50.81;100952.31;5074800;28;20052;-55
2023/03/23 04:42:57;;;;;;;4.43;3.95;;;;;;;19.25;50.71;100952.31;5075063;28;20427;-52
2023/03/23 04:45:46;;;;;;;7.85;4.28;;;;;;;19.25;50.58;100957.69;5075882;28;20379;-53
2023/03/23 04:48:13;;;;;;;6.32;4.15;;;;;;;19.25;50.71;100955.00;5074653;28;20057;-51
2023/03/23 04:50:55;;;;;;;5.15;3.90;;;;;;;19.25;50.47;100957.69;5074873;28;20056;-50
2023/03/23 04:53:28;;;;;;;5.55;3.75;;;;;;;19.24;50.70;100958.69;5074912;28;20052;-51
2023/03/23 04:55:55;;;;;;;4.70;3.70;;;;;;;19.24;50.68;100958.69;5074570;28;20052;-48
2023/03/23 04:58:24;;;;;;;5.60;3.95;;;;;;;19.25;50.63;100962.22;5074809;28;20059;-50
2023/03/23 05:01:19;;;;;;;4.65;3.90;;;;;;;19.24;50.73;100955.09;5075552;28;20044;-48
2023/03/23 05:04:03;;;;;;;4.25;3.13;;;;;;;19.24;50.67;100960.47;5074799;28;20060;-52
2023/03/23 05:06:30;;;;;;;6.57;3.55;;;;;;;19.24;50.62;100961.34;5074244;28;20063;-48
2023/03/23 05:09:03;;;;;;;6.15;4.03;;;;;;;19.24;50.67;100965.84;5074467;28;20064;-48
2023/03/23 05:11:30;;;;;;;5.38;3.60;;;;;;;19.24;50.71;100960.47;5074743;28;20052;-49
2023/03/23 05:13:57;;;;;;;4.80;3.85;;;;;;;19.24;50.50;100965.84;5074222;28;20052;-52
2023/03/23 05:16:23;;;;;;;4.78;3.17;;;;;;;19.23;50.59;100965.00;5074482;28;20399;-51
2023/03/23 05:18:50;;;;;;;4.38;3.38;;;;;;;19.23;50.45;100972.19;5057465;28;20387;-52
2023/03/23 05:21:18;;;;;;;4.50;3.78;;;;;;;19.23;50.42;100972.19;5074208;28;20372;-52
2023/03/23 05:23:54;;;;;;;5.65;3.70;;;;;;;19.23;50.62;100973.03;5073965;28;20056;-53
2023/03/23 05:26:28;;;;;;;4.60;3.53;;;;;;;19.23;50.43;100981.09;5058207;28;20055;-53
2023/03/23 05:28:59;;;;;;;5.53;3.53;;;;;;;19.23;50.50;100977.56;5075670;28;20056;-53
2023/03/23 05:31:39;;;;;;;4.40;3.53;;;;;;;19.23;50.41;100985.63;5074083;28;20067;-55
2023/03/23 05:34:06;;;;;;;4.63;3.30;;;;;;;19.23;50.50;100989.16;5073988;28;20079;-48
2023/03/23 05:36:47;;;;;;;5.30;3.47;;;;;;;19.22;50.39;100990.13;5073971;28;20076;-50
2023/03/23 05:39:32;;;;;;;5.30;3.10;;;;;;;19.21;50.34;100996.50;5081883;28;20059;-48
2023/03/23 05:42:32;;;;;;;7.43;3.67;;;;;;;19.21;50.46;101004.56;5074697;28;20537;-48
2023/03/23 05:45:19;;;;;;;4.40;3.40;;;;;;;19.22;50.41;101000.03;5074674;28;20071;-51
2023/03/23 05:47:47;;;;;;;5.05;3.03;;;;;;;19.21;50.48;101004.56;5073703;28;20487;-51
2023/03/23 05:50:19;;;;;;;5.00;3.58;;;;;;;19.21;50.45;101015.28;5073691;28;20384;-53
2023/03/23 05:52:45;;;;;;;8.13;3.60;;;;;;;19.21;50.49;101004.56;5074451;28;20494;-50
2023/03/23 05:55:14;;;;;;;4.60;3.33;;;;;;;19.20;50.52;101005.53;5073459;28;20082;-51
2023/03/23 05:57:46;;;;;;;5.50;3.55;;;;;;;19.20;50.42;101000.16;5073449;28;20422;-54
2023/03/23 06:00:29;;;;;;;5.00;3.70;;;;;;;19.20;50.48;101001.97;5072460;28;20063;-54
2023/03/23 06:03:05;;;;;;;4.43;3.20;;;;;;;19.19;50.65;101006.50;5073288;28;20498;-50
2023/03/23 06:05:44;;;;;;;3.78;3.25;;;;;;;19.21;50.41;101009.06;5073518;28;20414;-49
2023/03/23 06:08:12;;;;;;;4.70;3.50;;;;;;;19.21;50.44;101019.81;5073151;28;20061;-49
2023/03/23 06:10:39;;;;;;;5.80;3.85;;;;;;;19.20;50.38;101010.03;5073232;28;20056;-48
2023/03/23 06:13:05;;;;;;;4.75;3.17;;;;;;;19.20;50.42;101018.06;5073173;28;20445;-48
2023/03/23 06:15:57;;;;;;;5.05;3.53;;;;;;;19.20;50.36;101023.44;5073024;28;20048;-52
2023/03/23 06:18:42;;;;;;;4.50;3.33;;;;;;;19.21;50.19;101019.81;5080830;28;20076;-51
2023/03/23 06:21:18;;;;;;;5.65;3.75;;;;;;;19.21;50.48;101026.03;5073018;28;20056;-51
2023/03/23 06:23:56;;;;;;;4.40;3.72;;;;;;;19.21;50.54;101035.91;5072985;28;20059;-52
2023/03/23 06:26:32;;;;;;;9.18;4.30;;;;;;;19.21;50.44;101031.38;5072070;28;20053;-53
2023/03/23 06:29:00;;;;;;;4.32;3.20;;;;;;;19.21;50.25;101035.91;5072246;28;20518;-53
2023/03/23 06:31:33;;;;;;;6.10;4.18;;;;;;;19.20;50.26;101040.44;5073076;28;20414;-53
2023/03/23 06:34:02;;;;;;;5.50;3.75;;;;;;;19.21;50.25;101042.13;5072374;28;20063;-51
2023/03/23 06:36:49;;;;;;;5.15;3.92;;;;;;;19.21;50.43;101047.50;5072747;28;20060;-48
2023/03/23 06:39:19;;;;;;;8.38;4.22;;;;;;;19.21;50.20;101049.31;5072009;28;20415;-54
2023/03/23 06:42:05;;;;;;;5.10;3.40;;;;;;;19.21;50.39;101044.81;5080078;28;20056;-55
2023/03/23 06:44:35;;;;;;;5.95;4.13;;;;;;;19.21;50.07;101044.81;5072050;28;20049;-50
2023/03/23 06:47:02;;;;;;;5.72;3.63;;;;;;;19.20;50.34;101048.47;5071913;28;20410;-48
2023/03/23 06:49:35;;;;;;;5.45;3.80;;;;;;;19.21;50.23;101058.22;5071915;28;20045;-48
2023/03/23 06:52:11;;;;;;;5.25;3.55;;;;;;;19.22;50.21;101057.25;5071842;28;20406;-48
2023/03/23 06:54:38;;;;;;;4.75;3.53;;;;;;;19.22;50.15;101054.56;5071658;28;20052;-50
2023/03/23 06:57:06;;;;;;;5.75;3.67;;;;;;;19.22;50.23;101059.06;5071898;28;20052;-51
2023/03/23 06:59:32;;;;;;;6.22;3.60;;;;;;;19.21;50.51;101058.22;5071406;28;20052;-52
2023/03/23 07:02:01;;;;;;;5.35;3.47;;;;;;;19.22;50.51;101059.06;5071737;28;20063;-54
2023/03/23 07:04:27;;;;;;;4.85;3.60;;;;;;;19.23;50.39;101060.78;5071725;28;20056;-51
2023/03/23 07:07:02;;;;;;;3.75;3.17;;;;;;;19.22;50.42;101051.88;5056567;28;20521;-53
2023/03/23 07:09:32;;;;;;;5.38;3.72;;;;;;;19.23;50.38;101055.41;5071715;28;20399;-54
2023/03/23 07:11:59;;;;;;;7.40;4.30;;;;;;;19.22;50.38;101059.06;5071199;28;20068;-52
2023/03/23 07:14:33;;;;;;;4.38;3.38;;;;;;;19.23;50.36;101060.78;5071525;28;20410;-54
2023/03/23 07:17:00;;;;;;;7.18;3.90;;;;;;;19.23;50.25;101060.78;5071447;28;20065;-54
2023/03/23 07:19:27;;;;;;;5.38;3.30;;;;;;;19.22;50.42;101054.56;5071455;28;20057;-53
2023/03/23 07:21:53;;;;;;;5.05;3.45;;;;;;;19.22;50.47;101057.25;5072464;28;20045;-50
2023/03/23 07:24:22;;;;;;;7.65;3.38;;;;;;;19.23;50.67;101061.63;5071330;28;20068;-51
2023/03/23 07:27:21;;;;;;;5.05;3.67;;;;;;;19.23;50.71;101056.25;5031536;28;1182388;-52
2023/03/23 07:29:48;;;;;;;5.20;3.53;;;;;;;19.24;50.56;101057.97;5072175;28;20415;-54
2023/03/23 07:32:22;;;;;;;5.30;3.30;;;;;;;19.25;50.54;101056.16;5072349;28;20052;-51
2023/03/23 07:34:48;;;;;;;5.88;3.22;;;;;;;19.23;50.52;101063.47;5071584;28;20053;-52
2023/03/23 07:37:25;;;;;;;5.97;3.85;;;;;;;19.25;50.49;101062.38;5072222;28;20067;-51
2023/03/23 07:39:51;;;;;;;4.65;3.35;;;;;;;19.23;50.25;101058.94;5072102;28;20059;-51
2023/03/23 07:42:18;;;;;;;7.43;3.42;;;;;;;19.25;50.45;101059.69;5072110;28;20075;-54
2023/03/23 07:44:52;;;;;;;4.90;3.55;;;;;;;19.25;50.20;101065.06;5072027;28;20517;-50
2023/03/23 07:47:19;;;;;;;5.80;2.75;;;;;;;19.25;50.51;101066.88;5055013;28;20060;-53
2023/03/23 07:49:47;;;;;;;6.18;3.47;;;;;;;19.26;50.52;101068.59;5071788;28;20071;-50
2023/03/23 07:52:27;;;;;;;11.43;4.72;;;;;;;19.27;50.18;101056.84;5071976;28;20060;-57
2023/03/23 07:54:54;;;;;;;6.10;3.70;;;;;;;19.27;48.94;101062.22;5072815;28;20040;-50
2023/03/23 07:57:32;;;;;;;7.40;4.40;;;;;;;19.26;47.78;101061.38;5071685;28;20049;-49
2023/03/23 07:59:59;;;;;;;7.07;4.18;;;;;;;19.26;48.30;101071.25;5071698;28;20048;-56
2023/03/23 08:02:27;;;;;;;7.43;4.05;;;;;;;19.28;48.46;101063.94;5069551;28;20052;-51
2023/03/23 08:05:27;;;;;;;6.38;4.07;;;;;;;19.29;48.34;101057.59;5076631;28;20517;-57
2023/03/23 08:08:19;;;;;;;6.47;3.90;;;;;;;19.33;48.49;101058.22;5091997;28;20408;-54
2023/03/23 08:11:04;;;;;;;9.52;4.60;;;;;;;19.34;47.89;101055.38;5099663;28;20374;-49
2023/03/23 08:14:02;;;;;;;7.00;4.57;;;;;;;19.35;47.70;101058.91;5079113;28;20059;-49
2023/03/23 08:16:37;;;;;;;8.35;4.55;;;;;;;19.37;47.42;101059.66;5079208;28;20053;-49
2023/03/23 08:19:23;;;;;;;7.53;4.60;;;;;;;19.37;47.65;101056.97;5072344;28;20051;-53
2023/03/23 08:22:19;;;;;;;11.52;5.65;;;;;;;19.40;47.05;101059.38;5071511;28;20506;-50
2023/03/23 08:25:08;;;;;;;7.05;3.80;;;;;;;19.40;47.61;101065.59;5074863;28;20049;-54
2023/03/23 08:27:54;;;;;;;7.53;4.88;;;;;;;19.42;47.40;101060.13;5074741;28;20048;-52
2023/03/23 08:30:40;;;;;;;6.95;4.30;;;;;;;19.43;48.24;101068.03;5082634;28;20055;-50
2023/03/23 08:33:17;;;;;;;8.35;4.20;;;;;;;19.42;48.24;101060.13;5086781;28;20063;-54
2023/03/23 08:35:58;;;;;;;9.57;5.07;;;;;;;19.43;47.61;101062.66;5094544;28;20063;-54
2023/03/23 08:38:45;;;;;;;8.45;4.90;;;;;;;19.44;46.80;101066.19;5095016;28;20055;-56
2023/03/23 08:41:41;;;;;;;13.93;5.72;;;;;;;19.43;46.51;101057.28;5094306;28;20064;-52
2023/03/23 08:44:22;;;;;;;12.38;6.35;;;;;;;19.44;46.13;101055.47;5094879;28;20060;-51
2023/03/23 08:47:10;;;;;;;11.60;6.45;;;;;;;19.44;45.89;101053.63;5094439;28;20052;-51
2023/03/23 08:49:57;;;;;;;15.20;5.82;;;;;;;19.44;45.82;101059.00;5094936;28;20063;-53
2023/03/23 08:52:43;;;;;;;11.25;5.60;;;;;;;19.45;46.29;101060.72;5094599;28;20066;-50
2023/03/23 08:55:39;;;;;;;12.10;5.22;;;;;;;19.46;46.30;101059.75;5093993;28;20047;-53
2023/03/23 08:58:14;;;;;;;10.40;6.18;;;;;;;19.47;46.23;101063.28;5102501;28;20048;-56
2023/03/23 09:01:07;;;;;;;11.80;5.80;;;;;;;19.48;45.75;101067.66;5094970;28;20405;-49
2023/03/23 09:03:53;;;;;;;10.43;6.47;;;;;;;19.49;46.26;101075.59;5102204;28;20056;-54
2023/03/23 09:06:26;;;;;;;12.27;5.47;;;;;;;19.51;47.50;101067.41;5102061;28;20040;-50
2023/03/23 09:08:55;;;;;;;7.30;3.95;;;;;;;19.53;48.34;101076.22;5094284;28;20051;-48
2023/03/23 09:11:22;;;;;;;8.45;4.85;;;;;;;19.54;48.58;101077.91;5092378;28;20048;-49
2023/03/23 09:13:48;;;;;;;8.38;4.10;;;;;;;19.55;48.57;101070.69;5075129;28;20044;-47
2023/03/23 09:16:14;;;;;;;6.90;3.55;;;;;;;19.55;48.72;101071.53;5074989;28;20040;-52
2023/03/23 09:18:40;;;;;;;5.60;3.67;;;;;;;19.57;48.69;101079.47;5075096;28;20045;-57
2023/03/23 09:21:07;;;;;;;7.32;3.65;;;;;;;19.58;48.92;101073.13;5074979;28;20494;-53
2023/03/23 09:23:34;;;;;;;6.68;3.78;;;;;;;19.58;48.85;101079.34;5074973;28;20047;-52
2023/03/23 09:26:01;;;;;;;9.05;3.97;;;;;;;19.59;49.19;101077.50;5074850;28;20060;-51
2023/03/23 09:28:28;;;;;;;5.53;3.33;;;;;;;19.59;49.03;101077.50;5075134;28;20427;-51
2023/03/23 09:30:57;;;;;;;7.65;3.58;;;;;;;19.59;49.21;101078.38;5074735;28;20380;-57
2023/03/23 09:33:24;;;;;;;8.23;3.55;;;;;;;19.59;49.39;101078.38;5074751;28;20067;-57
2023/03/23 09:35:50;;;;;;;6.28;3.50;;;;;;;19.61;49.28;101078.25;5073845;28;20064;-49
2023/03/23 09:38:16;;;;;;;8.02;3.90;;;;;;;19.61;49.21;101079.13;5075124;28;20521;-49
2023/03/23 09:40:48;;;;;;;9.18;3.28;;;;;;;19.62;49.44;101077.31;5074565;28;20052;-49
2023/03/23 09:43:27;;;;;;;7.07;3.50;;;;;;;19.61;49.13;101081.81;5074405;28;20045;-49
2023/03/23 09:45:53;;;;;;;10.05;3.20;;;;;;;19.63;49.41;101074.47;5074243;28;20048;-48
2023/03/23 09:48:50;;;;;;;6.80;3.53;;;;;;;19.63;49.55;101071.78;5074239;28;20458;-52
2023/03/23 09:51:43;;;;;;;6.53;3.13;;;;;;;19.65;49.26;101072.53;5074132;28;20045;-51
2023/03/23 09:54:24;;;;;;;5.05;3.42;;;;;;;19.65;49.38;101067.16;5074922;28;20060;-57
2023/03/23 09:56:51;;;;;;;4.78;3.13;;;;;;;19.66;49.46;101073.38;5074139;28;20459;-57
2023/03/23 09:59:41;;;;;;;4.47;2.75;;;;;;;19.66;49.67;101071.53;5073929;28;20040;-58
2023/03/23 10:02:24;;;;;;;6.20;2.80;;;;;;;19.67;49.57;101073.25;5074230;28;20506;-55
2023/03/23 10:04:52;;;;;;;6.87;2.80;;;;;;;19.67;49.49;101065.19;5073146;28;20044;-49
2023/03/23 10:07:22;;;;;;;9.77;3.50;;;;;;;19.68;49.39;101071.41;5073798;28;20051;-51
2023/03/23 10:09:54;;;;;;;6.45;3.20;;;;;;;19.67;49.54;101070.56;5073989;28;20044;-49
2023/03/23 10:12:29;;;;;;;8.05;3.45;;;;;;;19.69;49.48;101073.97;5074036;28;20490;-51
2023/03/23 10:15:18;;;;;;;6.80;2.83;;;;;;;19.71;49.57;101073.84;5074035;28;20049;-56
2023/03/23 10:18:00;;;;;;;5.95;2.85;;;;;;;19.72;49.54;101072.84;5073890;28;20045;-56
2023/03/23 10:20:31;;;;;;;5.43;3.20;;;;;;;19.72;49.42;101067.47;5073914;28;20040;-59
2023/03/23 10:23:12;;;;;;;5.15;2.70;;;;;;;19.71;49.49;101063.09;5073940;28;20048;-57
2023/03/23 10:25:43;;;;;;;7.45;3.20;;;;;;;19.73;49.21;101063.84;5073570;28;20045;-57
2023/03/23 10:28:12;;;;;;;5.60;3.22;;;;;;;19.73;49.14;101066.53;5073735;28;20077;-56
2023/03/23 10:30:57;;;;;;;6.22;3.00;;;;;;;19.73;49.04;101071.88;5073614;28;20040;-57
2023/03/23 10:33:37;;;;;;;6.40;3.13;;;;;;;19.72;49.53;101065.63;5073546;28;20060;-57
2023/03/23 10:36:16;;;;;;;8.10;3.47;;;;;;;19.73;49.00;101061.16;5073058;28;20043;-57
2023/03/23 10:38:48;;;;;;;7.43;3.55;;;;;;;19.73;49.61;101063.84;5091745;28;20048;-57
2023/03/23 10:41:17;;;;;;;8.00;2.78;;;;;;;19.73;49.28;101059.31;5093582;28;20055;-53
2023/03/23 10:43:45;;;;;;;5.20;3.17;;;;;;;19.73;49.29;101058.47;5093988;28;20052;-57
2023/03/23 10:46:27;;;;;;;7.50;3.03;;;;;;;19.74;49.42;101046.72;5093246;28;20640;-57
2023/03/23 10:48:58;;;;;;;6.28;3.35;;;;;;;19.74;49.49;101050.25;5093275;28;20040;-54
2023/03/23 10:51:33;;;;;;;6.20;2.80;;;;;;;19.75;49.47;101051.97;5062248;28;20055;-52
2023/03/23 10:54:02;;;;;;;5.13;2.72;;;;;;;19.76;49.44;101048.28;5072964;28;20048;-56
2023/03/23 10:56:36;;;;;;;6.15;3.30;;;;;;;19.78;49.65;101044.63;5055174;28;20052;-54
2023/03/23 10:59:20;;;;;;;6.18;3.33;;;;;;;19.78;49.44;101045.50;5071811;28;20483;-57
2023/03/23 11:01:48;;;;;;;;;;;;;;;19.78;49.45;101047.31;5073253;28;20388;-54
2023/03/23 11:04:17;;;;;;;8.20;3.28;;;;;;;19.78;49.51;101044.63;5072856;28;19920;-57
2023/03/23 11:06:46;;;;;;;5.35;2.85;;;;;;;19.79;49.28;101040.97;5072077;28;20059;-55
2023/03/23 11:09:18;;;;;;;6.45;3.28;;;;;;;19.79;49.37;101038.28;5072817;28;20044;-55
2023/03/23 11:11:54;;;;;;;7.63;3.65;;;;;;;19.80;49.28;101043.50;5072714;28;20511;-57
2023/03/23 11:14:29;;;;;;;4.70;2.78;;;;;;;19.80;49.40;101050.72;5073297;28;20060;-57
2023/03/23 11:17:01;;;;;;;8.93;3.20;;;;;;;19.80;49.28;101045.34;5072663;28;20040;-58
2023/03/23 11:19:35;;;;;;;6.82;2.88;;;;;;;19.80;49.16;101042.66;5072308;28;20526;-56
2023/03/23 11:22:04;;;;;;;5.68;3.38;;;;;;;19.80;49.23;101040.81;5073110;28;20057;-57
2023/03/23 11:24:43;;;;;;;6.15;3.42;;;;;;;19.81;49.23;101041.66;5073115;28;20055;-52
2023/03/23 11:27:10;;;;;;;7.40;3.03;;;;;;;19.82;49.81;101036.19;5072807;28;20053;-57
2023/03/23 11:30:00;;;;;;;7.90;2.90;;;;;;;19.85;49.74;101035.94;5071877;28;20049;-57
2023/03/23 11:32:30;;;;;;;4.60;3.03;;;;;;;19.86;49.64;101040.31;5073061;28;20471;-55
2023/03/23 11:35:04;;;;;;;6.70;2.58;;;;;;;19.89;49.72;101033.81;5073028;28;20387;-53
2023/03/23 11:37:40;;;;;;;5.55;3.22;;;;;;;19.90;49.88;101025.63;5072963;28;20041;-50
2023/03/23 11:40:09;;;;;;;7.60;2.33;;;;;;;19.91;50.07;101030.03;5072755;28;20517;-49
2023/03/23 11:42:44;;;;;;;4.78;3.00;;;;;;;19.92;49.95;101031.72;5072907;28;20055;-54
2023/03/23 11:45:19;;;;;;;7.30;3.15;;;;;;;19.93;50.10;101019.13;5073003;28;20049;-53
2023/03/23 11:47:45;;;;;;;7.05;3.00;;;;;;;19.94;50.34;101026.22;5071737;28;20047;-51
2023/03/23 11:50:23;;;;;;;5.55;3.08;;;;;;;19.95;50.42;101031.47;5072862;28;20049;-50
2023/03/23 11:53:08;;;;;;;4.97;2.78;;;;;;;19.96;50.45;101027.78;5071794;28;20044;-54
2023/03/23 11:56:05;;;;;;;4.28;2.63;;;;;;;19.97;50.55;101028.63;5072563;28;20497;-52
2023/03/23 11:58:32;;;;;;;4.18;2.55;;;;;;;19.97;50.63;101029.50;5074068;28;20044;-50